Time;durP1;ratioP1;P1;durP2;ratioP2;P2;SDS_P1;SDS_P2;PMS_P1;PMS_P2;Temp;Humidity;BMP_temperature;BMP_pressure;BME280_temperature;BME280_humidity;BME280_pressure;Samples;Min_cycle;Max_cycle;Signal;HPM_P1;HPM_P2
2022/11/12 00:00:21;;;;;;;10.90;7.10;;;;;;;;;;5054499;28;20734;-74
2022/11/12 00:02:47;;;;;;;13.23;7.35;;;;;;;;;;5054669;28;20525;-74
2022/11/12 00:05:13;;;;;;;11.02;6.75;;;;;;;;;;5054777;28;20447;-74
2022/11/12 00:07:39;;;;;;;11.23;6.72;;;;;;;;;;5054890;28;20514;-74
2022/11/12 00:10:05;;;;;;;10.23;6.00;;;;;;;;;;5055456;28;20073;-74
2022/11/12 00:12:32;;;;;;;12.43;6.55;;;;;;;;;;5051932;28;20576;-72
2022/11/12 00:14:58;;;;;;;9.73;6.13;;;;;;;;;;5055501;28;20045;-74
2022/11/12 00:17:24;;;;;;;8.77;5.90;;;;;;;;;;5030570;28;20045;-74
2022/11/12 00:19:50;;;;;;;11.00;7.20;;;;;;;;;;5055922;28;20041;-74
2022/11/12 00:22:16;;;;;;;9.27;6.00;;;;;;;;;;5054035;28;20203;-75
2022/11/12 00:24:42;;;;;;;9.77;6.43;;;;;;;;;;5054544;28;20566;-74
2022/11/12 00:27:08;;;;;;;10.35;6.90;;;;;;;;;;5055095;28;20043;-73
2022/11/12 00:29:34;;;;;;;27.90;7.30;;;;;;;;;;5052861;28;20047;-74
2022/11/12 00:32:00;;;;;;;10.73;6.18;;;;;;;;;;5036469;28;20061;-74
2022/11/12 00:34:26;;;;;;;9.55;6.30;;;;;;;;;;5053155;28;20041;-75
2022/11/12 00:36:53;;;;;;;9.88;6.63;;;;;;;;;;5054007;28;20041;-74
2022/11/12 00:39:19;;;;;;;9.05;6.38;;;;;;;;;;5052667;28;20045;-74
2022/11/12 00:41:45;;;;;;;8.25;5.93;;;;;;;;;;5053922;28;20052;-74
2022/11/12 00:44:11;;;;;;;9.05;5.90;;;;;;;;;;5053695;28;20049;-74
2022/11/12 00:46:37;;;;;;;8.75;5.72;;;;;;;;;;5035837;28;20045;-74
2022/11/12 00:49:03;;;;;;;8.38;5.43;;;;;;;;;;5036082;28;20044;-75
2022/11/12 00:51:29;;;;;;;12.40;7.50;;;;;;;;;;5035708;28;20654;-73
2022/11/12 00:53:55;;;;;;;9.63;6.32;;;;;;;;;;5054548;28;20047;-74
2022/11/12 00:56:21;;;;;;;10.27;6.80;;;;;;;;;;5054898;28;20041;-74
2022/11/12 00:58:47;;;;;;;11.18;5.85;;;;;;;;;;5054486;28;20128;-74
2022/11/12 01:01:14;;;;;;;11.90;6.78;;;;;;;;;;5059494;28;20600;-73
2022/11/12 01:03:41;;;;;;;11.07;6.32;;;;;;;;;;5037966;28;20272;-74
2022/11/12 01:06:14;;;;;;;8.63;5.97;;;;;;;;;;5058724;28;20205;-75
2022/11/12 01:08:41;;;;;;;8.65;5.88;;;;;;;;;;5057712;28;20471;-74
2022/11/12 01:11:15;;;;;;;10.20;6.47;;;;;;;;;;5032466;28;20041;-75
2022/11/12 01:13:42;;;;;;;8.25;5.25;;;;;;;;;;5055905;28;20787;-74
2022/11/12 01:16:09;;;;;;;9.30;6.70;;;;;;;;;;5032033;28;20075;-75
2022/11/12 01:18:35;;;;;;;11.07;6.07;;;;;;;;;;5037017;28;20043;-74
2022/11/12 01:21:05;;;;;;;9.00;5.63;;;;;;;;;;5031816;28;20426;-76
2022/11/12 01:23:32;;;;;;;9.32;6.38;;;;;;;;;;5052584;28;20099;-75
2022/11/12 01:26:03;;;;;;;9.18;6.10;;;;;;;;;;5057461;28;20052;-75
2022/11/12 01:28:29;;;;;;;10.63;6.80;;;;;;;;;;5050294;28;20041;-74
2022/11/12 01:30:55;;;;;;;8.85;7.05;;;;;;;;;;5051623;28;20075;-75
2022/11/12 01:33:21;;;;;;;12.82;7.82;;;;;;;;;;5053728;28;20124;-75
2022/11/12 01:35:47;;;;;;;11.07;7.00;;;;;;;;;;5055279;28;20122;-75
2022/11/12 01:38:13;;;;;;;10.95;6.43;;;;;;;;;;5053414;28;20648;-73
2022/11/12 01:40:39;;;;;;;9.82;6.13;;;;;;;;;;5054922;28;20048;-75
2022/11/12 01:43:12;;;;;;;9.95;6.03;;;;;;;;;;5038665;28;20041;-75
2022/11/12 01:45:40;;;;;;;10.18;6.30;;;;;;;;;;5055607;28;20234;-75
2022/11/12 01:48:06;;;;;;;9.35;5.30;;;;;;;;;;5055419;28;20546;-75
2022/11/12 01:50:33;;;;;;;17.80;7.53;;;;;;;;;;5054902;28;20111;-74
2022/11/12 01:53:01;;;;;;;10.68;6.95;;;;;;;;;;5028537;28;20045;-75
2022/11/12 01:55:32;;;;;;;10.38;7.45;;;;;;;;;;5054018;28;20047;-75
2022/11/12 01:57:58;;;;;;;11.10;7.22;;;;;;;;;;5053788;28;20049;-75
2022/11/12 02:00:24;;;;;;;10.25;6.57;;;;;;;;;;5053994;28;20041;-76
2022/11/12 02:02:55;;;;;;;10.30;6.20;;;;;;;;;;5029149;28;20100;-74
2022/11/12 02:05:22;;;;;;;12.65;7.25;;;;;;;;;;5051213;28;20577;-74
2022/11/12 02:07:48;;;;;;;11.65;7.85;;;;;;;;;;5054076;28;20044;-74
2022/11/12 02:10:15;;;;;;;11.00;7.28;;;;;;;;;;5053609;28;20049;-74
2022/11/12 02:15:26;;;;;;;10.52;6.13;;;;;;;;;;5053591;28;20049;-74
2022/11/12 02:17:52;;;;;;;9.85;6.15;;;;;;;;;;5055221;28;20511;-74
2022/11/12 02:20:19;;;;;;;10.55;6.53;;;;;;;;;;5052697;28;20048;-74
2022/11/12 02:22:45;;;;;;;9.18;5.93;;;;;;;;;;5054625;28;20045;-74
2022/11/12 02:25:12;;;;;;;9.50;6.95;;;;;;;;;;5054867;28;20095;-75
2022/11/12 02:27:38;;;;;;;14.73;8.25;;;;;;;;;;5036247;28;20037;-74
2022/11/12 02:30:05;;;;;;;8.77;6.65;;;;;;;;;;5052936;28;20044;-74
2022/11/12 02:32:31;;;;;;;8.52;6.18;;;;;;;;;;5029417;28;20095;-75
2022/11/12 02:34:57;;;;;;;10.65;6.32;;;;;;;;;;5054843;28;20041;-75
2022/11/12 02:37:23;;;;;;;9.35;5.90;;;;;;;;;;5053072;28;20037;-75
2022/11/12 02:39:49;;;;;;;9.20;6.38;;;;;;;;;;5054185;28;20262;-74
2022/11/12 02:42:15;;;;;;;8.82;5.82;;;;;;;;;;5035864;28;20127;-74
2022/11/12 02:44:41;;;;;;;10.57;6.53;;;;;;;;;;5036041;28;20436;-75
2022/11/12 02:47:07;;;;;;;10.07;5.85;;;;;;;;;;5054239;28;20640;-75
2022/11/12 02:49:33;;;;;;;11.32;6.05;;;;;;;;;;5051958;28;20560;-74
2022/11/12 02:51:59;;;;;;;8.65;6.65;;;;;;;;;;5036305;28;20711;-74
2022/11/12 02:54:25;;;;;;;7.82;5.90;;;;;;;;;;5053175;28;20048;-74
2022/11/12 02:56:51;;;;;;;8.93;6.13;;;;;;;;;;5054364;28;20088;-74
2022/11/12 02:59:17;;;;;;;9.52;6.72;;;;;;;;;;5054015;28;20983;-74
2022/11/12 03:01:43;;;;;;;8.60;5.93;;;;;;;;;;5029027;28;20033;-74
2022/11/12 03:04:09;;;;;;;10.45;6.43;;;;;;;;;;5054189;28;20062;-74
2022/11/12 03:06:36;;;;;;;10.07;6.35;;;;;;;;;;5054273;28;20095;-74
2022/11/12 03:09:02;;;;;;;10.82;6.63;;;;;;;;;;5028215;28;20370;-73
2022/11/12 03:11:28;;;;;;;10.40;6.47;;;;;;;;;;5035494;28;20033;-74
2022/11/12 03:13:54;;;;;;;8.52;5.65;;;;;;;;;;5053437;28;20244;-75
2022/11/12 03:16:20;;;;;;;8.35;5.93;;;;;;;;;;5052908;28;20576;-74
2022/11/12 03:18:46;;;;;;;9.38;6.20;;;;;;;;;;5026889;28;20041;-73
2022/11/12 03:21:12;;;;;;;9.15;6.10;;;;;;;;;;5052005;28;20029;-73
2022/11/12 03:23:38;;;;;;;9.93;5.68;;;;;;;;;;5055177;28;21235;-75
2022/11/12 03:26:04;;;;;;;9.68;5.75;;;;;;;;;;5030463;28;20570;-74
2022/11/12 03:28:31;;;;;;;12.63;6.95;;;;;;;;;;5052199;28;20560;-75
2022/11/12 03:30:58;;;;;;;9.88;6.80;;;;;;;;;;5054163;28;20060;-74
2022/11/12 03:33:24;;;;;;;8.75;6.65;;;;;;;;;;5054421;28;20060;-75
2022/11/12 03:35:51;;;;;;;10.73;6.15;;;;;;;;;;5034715;28;20056;-74
2022/11/12 03:38:17;;;;;;;10.68;6.75;;;;;;;;;;5028942;28;20049;-74
2022/11/12 03:40:43;;;;;;;10.65;5.80;;;;;;;;;;5034128;28;20099;-75
2022/11/12 03:43:09;;;;;;;10.80;5.93;;;;;;;;;;5053967;28;20155;-74
2022/11/12 03:45:35;;;;;;;8.77;6.13;;;;;;;;;;5029787;28;20037;-74
2022/11/12 03:48:01;;;;;;;11.40;6.53;;;;;;;;;;5053623;28;20506;-75
2022/11/12 03:50:29;;;;;;;10.35;6.47;;;;;;;;;;5029787;28;20458;-74
2022/11/12 03:52:56;;;;;;;9.82;6.72;;;;;;;;;;5034748;28;20110;-74
2022/11/12 03:55:24;;;;;;;14.80;6.93;;;;;;;;;;5034032;28;20072;-74
2022/11/12 03:57:50;;;;;;;13.20;6.28;;;;;;;;;;5053321;28;20045;-74
2022/11/12 04:00:17;;;;;;;11.20;5.95;;;;;;;;;;5052677;28;20519;-73
2022/11/12 04:02:43;;;;;;;12.40;6.35;;;;;;;;;;5051892;28;20148;-73
2022/11/12 04:10:49;;;;;;;23.98;6.28;;;;;;;;;;5052258;28;20088;-73
2022/11/12 04:13:28;;;;;;;20.60;6.55;;;;;;;;;;5053295;28;21903;-73
2022/11/12 04:26:21;;;;;;;11.02;5.90;;;;;;;;;;5054532;28;20590;-72
2022/11/12 04:26:59;;;;;;;10.52;4.93;;;;;;;;;;5054534;28;20049;-75
2022/11/12 04:32:10;;;;;;;8.52;5.13;;;;;;;;;;5058542;28;20057;-74
2022/11/12 04:34:36;;;;;;;8.95;4.82;;;;;;;;;;5058132;28;20039;-73
2022/11/12 04:37:03;;;;;;;8.95;5.18;;;;;;;;;;5057347;28;20040;-74
2022/11/12 04:39:29;;;;;;;6.57;4.57;;;;;;;;;;5057816;28;20044;-74
2022/11/12 04:47:28;;;;;;;10.25;5.22;;;;;;;;;;5059017;28;20060;-74
2022/11/12 04:49:54;;;;;;;6.63;5.22;;;;;;;;;;5057745;28;20049;-74
2022/11/12 04:52:20;;;;;;;6.30;4.53;;;;;;;;;;5057066;28;20045;-74
2022/11/12 04:54:46;;;;;;;8.10;4.63;;;;;;;;;;5058109;28;20041;-75
2022/11/12 04:57:12;;;;;;;7.80;4.63;;;;;;;;;;5057709;28;20129;-74
2022/11/12 04:59:38;;;;;;;6.75;4.53;;;;;;;;;;5056296;28;20056;-75
2022/11/12 05:02:04;;;;;;;12.80;4.45;;;;;;;;;;5056487;28;20065;-75
2022/11/12 05:04:30;;;;;;;9.85;4.85;;;;;;;;;;5035697;28;20137;-74
2022/11/12 05:06:57;;;;;;;8.20;4.20;;;;;;;;;;5059499;28;20124;-74
2022/11/12 05:09:24;;;;;;;12.88;5.35;;;;;;;;;;5042347;28;20045;-74
2022/11/12 05:11:51;;;;;;;12.70;6.30;;;;;;;;;;5057409;28;20052;-74
2022/11/12 05:14:17;;;;;;;14.82;5.80;;;;;;;;;;5055567;28;20084;-74
2022/11/12 05:16:44;;;;;;;12.57;5.57;;;;;;;;;;5035760;28;20052;-75
2022/11/12 05:19:10;;;;;;;15.05;5.88;;;;;;;;;;5056711;28;20116;-74
2022/11/12 05:24:20;;;;;;;9.82;5.78;;;;;;;;;;5059149;28;20103;-73
2022/11/12 05:26:46;;;;;;;17.38;6.60;;;;;;;;;;5058049;28;20041;-73
2022/11/12 05:29:13;;;;;;;18.98;6.65;;;;;;;;;;5056868;28;20049;-73
2022/11/12 05:31:39;;;;;;;15.00;6.00;;;;;;;;;;5056769;28;20041;-73
2022/11/12 05:34:05;;;;;;;8.45;5.35;;;;;;;;;;5034516;28;20123;-74
2022/11/12 05:36:35;;;;;;;14.82;5.95;;;;;;;;;;5058054;28;20040;-74
2022/11/12 05:39:01;;;;;;;15.52;6.55;;;;;;;;;;5054016;28;21277;-74
2022/11/12 05:41:27;;;;;;;10.27;6.13;;;;;;;;;;5037654;28;20049;-74
2022/11/12 05:43:53;;;;;;;13.30;5.93;;;;;;;;;;5058355;28;20041;-74
2022/11/12 05:46:20;;;;;;;15.80;6.80;;;;;;;;;;5057062;28;20041;-73
2022/11/12 05:48:46;;;;;;;12.15;5.78;;;;;;;;;;5039544;28;20041;-75
2022/11/12 05:51:12;;;;;;;22.85;6.85;;;;;;;;;;5046283;28;20053;-74
2022/11/12 05:53:41;;;;;;;26.60;6.95;;;;;;;;;;5062436;28;20077;-74
2022/11/12 05:56:08;;;;;;;18.85;5.80;;;;;;;;;;5064379;28;20039;-73
2022/11/12 05:58:34;;;;;;;21.30;6.45;;;;;;;;;;5068819;28;20072;-74
2022/11/12 06:01:01;;;;;;;12.10;5.05;;;;;;;;;;5067852;28;20041;-74
2022/11/12 06:03:27;;;;;;;11.80;4.68;;;;;;;;;;5043155;28;20044;-74
2022/11/12 06:05:53;;;;;;;24.55;6.20;;;;;;;;;;5066061;28;20159;-73
2022/11/12 06:08:19;;;;;;;12.23;4.78;;;;;;;;;;5048858;28;20045;-73
2022/11/12 06:10:52;;;;;;;38.00;6.25;;;;;;;;;;5064484;28;20040;-73
2022/11/12 06:13:18;;;;;;;13.55;4.90;;;;;;;;;;5065690;28;20051;-73
2022/11/12 06:15:44;;;;;;;11.68;5.22;;;;;;;;;;5061064;28;20045;-73
2022/11/12 06:18:11;;;;;;;15.27;5.60;;;;;;;;;;5068878;28;20685;-73
2022/11/12 06:20:37;;;;;;;14.30;5.07;;;;;;;;;;5066227;28;20579;-73
2022/11/12 06:23:03;;;;;;;15.68;5.18;;;;;;;;;;5043096;28;20037;-73
2022/11/12 06:25:29;;;;;;;10.70;4.82;;;;;;;;;;5058093;28;20046;-74
2022/11/12 06:27:55;;;;;;;7.65;4.95;;;;;;;;;;5056401;28;20123;-74
2022/11/12 06:30:21;;;;;;;11.40;4.85;;;;;;;;;;5055555;28;20311;-74
2022/11/12 06:32:48;;;;;;;13.63;5.90;;;;;;;;;;5049087;28;20041;-73
2022/11/12 06:35:14;;;;;;;12.57;6.50;;;;;;;;;;5052875;28;20072;-73
2022/11/12 06:37:40;;;;;;;14.15;5.60;;;;;;;;;;5031493;28;20088;-74
2022/11/12 06:40:07;;;;;;;8.77;5.40;;;;;;;;;;5055083;28;20590;-73
2022/11/12 06:42:33;;;;;;;7.63;5.25;;;;;;;;;;5030827;28;20168;-75
2022/11/12 06:44:59;;;;;;;13.48;4.03;;;;;;;;;;5053980;28;20052;-74
2022/11/12 06:47:25;;;;;;;17.10;5.70;;;;;;;;;;5028555;28;20053;-74
2022/11/12 06:49:51;;;;;;;8.15;4.80;;;;;;;;;;5053794;28;20049;-74
2022/11/12 06:52:17;;;;;;;8.63;4.85;;;;;;;;;;5051410;28;20041;-74
2022/11/12 06:54:44;;;;;;;8.23;4.50;;;;;;;;;;5053262;28;20033;-73
2022/11/12 06:57:10;;;;;;;9.98;4.95;;;;;;;;;;5053197;28;20063;-75
2022/11/12 06:59:36;;;;;;;8.75;4.93;;;;;;;;;;5054014;28;20065;-74
2022/11/12 07:02:03;;;;;;;14.07;5.45;;;;;;;;;;5053342;28;20048;-74
2022/11/12 07:04:29;;;;;;;11.05;5.63;;;;;;;;;;5053406;28;20055;-74
2022/11/12 07:06:55;;;;;;;12.65;5.95;;;;;;;;;;5034967;28;20150;-73
2022/11/12 07:09:21;;;;;;;23.42;7.18;;;;;;;;;;5054054;28;21191;-74
2022/11/12 07:11:47;;;;;;;12.80;5.85;;;;;;;;;;5027198;28;20056;-75
2022/11/12 07:14:13;;;;;;;20.83;7.75;;;;;;;;;;5052974;28;20040;-74
2022/11/12 07:16:39;;;;;;;11.73;4.85;;;;;;;;;;5054608;28;20040;-74
2022/11/12 07:19:06;;;;;;;25.67;7.35;;;;;;;;;;5033771;28;20052;-74
2022/11/12 07:21:32;;;;;;;16.88;5.97;;;;;;;;;;5053958;28;20112;-74
2022/11/12 07:23:58;;;;;;;18.90;5.80;;;;;;;;;;5053923;28;20044;-74
2022/11/12 07:26:26;;;;;;;17.58;6.95;;;;;;;;;;5052676;28;20111;-74
2022/11/12 07:28:55;;;;;;;14.13;5.50;;;;;;;;;;5052857;28;20127;-74
2022/11/12 07:31:21;;;;;;;15.30;6.13;;;;;;;;;;5052986;28;20534;-74
2022/11/12 07:33:48;;;;;;;17.70;6.70;;;;;;;;;;5036573;28;20112;-74
2022/11/12 07:36:18;;;;;;;15.98;6.00;;;;;;;;;;5026990;28;20521;-73
2022/11/12 07:38:44;;;;;;;23.70;6.45;;;;;;;;;;5045135;28;20543;-74
2022/11/12 07:41:13;;;;;;;14.63;5.80;;;;;;;;;;5047892;28;20040;-73
2022/11/12 07:43:39;;;;;;;26.83;6.20;;;;;;;;;;5049025;28;20584;-73
2022/11/12 07:46:10;;;;;;;12.77;6.43;;;;;;;;;;5051533;28;22052;-73
2022/11/12 07:48:37;;;;;;;12.65;5.93;;;;;;;;;;5050010;28;20103;-73
2022/11/12 07:51:04;;;;;;;15.68;6.40;;;;;;;;;;5052200;28;20205;-74
2022/11/12 07:53:31;;;;;;;27.27;6.30;;;;;;;;;;5047106;28;20048;-73
2022/11/12 07:55:58;;;;;;;23.05;5.72;;;;;;;;;;5043202;28;20047;-74
2022/11/12 07:58:25;;;;;;;21.80;6.65;;;;;;;;;;5051548;28;20068;-73
2022/11/12 08:00:51;;;;;;;19.50;6.15;;;;;;;;;;5030245;28;20041;-74
2022/11/12 08:03:18;;;;;;;16.77;5.88;;;;;;;;;;5051723;28;20045;-74
2022/11/12 08:05:44;;;;;;;18.98;7.00;;;;;;;;;;5058753;28;20045;-74
2022/11/12 08:08:10;;;;;;;15.15;5.97;;;;;;;;;;5057706;28;20048;-74
2022/11/12 08:10:36;;;;;;;23.13;7.35;;;;;;;;;;5058781;28;20068;-74
2022/11/12 08:13:03;;;;;;;17.10;6.55;;;;;;;;;;5058103;28;20048;-74
2022/11/12 08:15:29;;;;;;;12.23;5.45;;;;;;;;;;5058602;28;20048;-74
2022/11/12 08:17:55;;;;;;;17.65;7.18;;;;;;;;;;5055992;28;20057;-74
2022/11/12 08:20:21;;;;;;;16.75;8.65;;;;;;;;;;5035223;28;20037;-75
2022/11/12 08:22:47;;;;;;;15.23;7.70;;;;;;;;;;5041336;28;20045;-74
2022/11/12 08:25:13;;;;;;;12.88;7.28;;;;;;;;;;5061048;28;20053;-73
2022/11/12 08:27:39;;;;;;;18.50;9.18;;;;;;;;;;5059770;28;20040;-73
2022/11/12 08:30:06;;;;;;;24.38;8.23;;;;;;;;;;5062998;28;20045;-74
2022/11/12 08:32:32;;;;;;;16.23;9.40;;;;;;;;;;5036688;28;20533;-74
2022/11/12 08:34:59;;;;;;;17.58;8.68;;;;;;;;;;5059658;28;20037;-74
2022/11/12 08:37:25;;;;;;;24.15;8.18;;;;;;;;;;5042887;28;20488;-74
2022/11/12 08:39:51;;;;;;;24.77;9.68;;;;;;;;;;5035887;28;20064;-75
2022/11/12 08:42:17;;;;;;;22.27;8.57;;;;;;;;;;5059390;28;20128;-74
2022/11/12 08:44:43;;;;;;;19.33;9.27;;;;;;;;;;5042326;28;20106;-74
2022/11/12 08:47:09;;;;;;;19.95;10.20;;;;;;;;;;5056509;28;20039;-74
2022/11/12 08:49:35;;;;;;;20.98;9.13;;;;;;;;;;5058764;28;20043;-74
2022/11/12 08:52:01;;;;;;;21.83;10.43;;;;;;;;;;5034428;28;20041;-74
2022/11/12 08:54:27;;;;;;;19.27;11.63;;;;;;;;;;5034595;28;20954;-74
2022/11/12 08:56:53;;;;;;;18.75;8.85;;;;;;;;;;5058759;28;20104;-74
2022/11/12 08:59:19;;;;;;;25.13;12.60;;;;;;;;;;5056007;28;20044;-74
2022/11/12 09:01:45;;;;;;;21.60;11.68;;;;;;;;;;5056850;28;20287;-75
2022/11/12 09:04:11;;;;;;;19.48;9.65;;;;;;;;;;5056132;28;20049;-76
2022/11/12 09:06:37;;;;;;;18.67;12.38;;;;;;;;;;5035270;28;20045;-75
2022/11/12 09:09:05;;;;;;;18.05;12.13;;;;;;;;;;5054158;28;20133;-75
2022/11/12 09:11:31;;;;;;;17.42;10.23;;;;;;;;;;5056357;28;20041;-75
2022/11/12 09:13:57;;;;;;;20.20;10.38;;;;;;;;;;5057803;28;20475;-75
2022/11/12 09:16:23;;;;;;;25.77;10.45;;;;;;;;;;5054720;28;21213;-75
2022/11/12 09:18:49;;;;;;;19.25;10.70;;;;;;;;;;5054466;28;20037;-75
2022/11/12 09:21:16;;;;;;;19.55;9.95;;;;;;;;;;5046556;28;20645;-74
2022/11/12 09:23:42;;;;;;;20.20;12.45;;;;;;;;;;5031661;28;20053;-74
2022/11/12 09:26:08;;;;;;;18.27;11.68;;;;;;;;;;5057478;28;20040;-75
2022/11/12 09:28:34;;;;;;;18.23;11.05;;;;;;;;;;5034001;28;20177;-75
2022/11/12 09:31:01;;;;;;;17.55;11.80;;;;;;;;;;5057392;28;20049;-74
2022/11/12 09:33:29;;;;;;;19.60;12.88;;;;;;;;;;5032367;28;20045;-75
2022/11/12 09:35:56;;;;;;;19.08;10.77;;;;;;;;;;5052936;28;20037;-75
2022/11/12 09:38:22;;;;;;;19.10;12.13;;;;;;;;;;5030006;28;21229;-75
2022/11/12 09:40:51;;;;;;;17.15;10.82;;;;;;;;;;5055119;28;20510;-75
2022/11/12 09:43:34;;;;;;;18.08;10.75;;;;;;;;;;5057031;28;20045;-75
2022/11/12 09:46:13;;;;;;;20.58;11.95;;;;;;;;;;5057034;28;20041;-75
2022/11/12 09:48:41;;;;;;;22.92;11.38;;;;;;;;;;5038649;28;20068;-75
2022/11/12 09:51:13;;;;;;;16.58;11.32;;;;;;;;;;5057023;28;20040;-75
2022/11/12 09:53:55;;;;;;;16.48;11.52;;;;;;;;;;5056283;28;20567;-74
2022/11/12 09:56:22;;;;;;;33.53;12.38;;;;;;;;;;5043171;28;20045;-75
2022/11/12 09:58:49;;;;;;;18.67;10.73;;;;;;;;;;5056206;28;20041;-75
2022/11/12 10:01:15;;;;;;;14.75;10.52;;;;;;;;;;5055630;28;20053;-75
2022/11/12 10:03:55;;;;;;;16.83;11.00;;;;;;;;;;5056243;28;20063;-75
2022/11/12 10:06:29;;;;;;;18.40;10.35;;;;;;;;;;5052822;28;20447;-75
2022/11/12 10:09:00;;;;;;;18.55;12.38;;;;;;;;;;5034144;28;20122;-75
2022/11/12 10:14:44;;;;;;;19.45;10.52;;;;;;;;;;5052710;28;20701;-75
2022/11/12 10:17:35;;;;;;;18.80;11.02;;;;;;;;;;5047030;28;20128;-76
2022/11/12 10:20:12;;;;;;;16.45;9.68;;;;;;;;;;5052391;28;20139;-76
2022/11/12 10:23:04;;;;;;;22.00;11.52;;;;;;;;;;5052972;28;20499;-76
2022/11/12 10:25:31;;;;;;;21.58;12.85;;;;;;;;;;5054671;28;20041;-76
2022/11/12 10:27:57;;;;;;;20.20;11.45;;;;;;;;;;5034248;28;20049;-76
2022/11/12 10:30:24;;;;;;;22.30;11.45;;;;;;;;;;5053447;28;20036;-76
2022/11/12 10:32:51;;;;;;;18.08;11.50;;;;;;;;;;5035732;28;20045;-77
2022/11/12 10:35:19;;;;;;;15.45;10.68;;;;;;;;;;5057893;28;20045;-76
2022/11/12 10:37:47;;;;;;;16.55;9.82;;;;;;;;;;5056740;28;20049;-76
2022/11/12 10:40:26;;;;;;;20.50;9.65;;;;;;;;;;5038769;28;20037;-75
2022/11/12 10:43:15;;;;;;;16.33;9.55;;;;;;;;;;5033609;28;20071;-76
2022/11/12 10:45:42;;;;;;;15.13;9.80;;;;;;;;;;5044421;28;20146;-76
2022/11/12 10:48:23;;;;;;;12.30;8.82;;;;;;;;;;5056962;28;20091;-75
2022/11/12 10:50:49;;;;;;;16.70;9.73;;;;;;;;;;5058622;28;20462;-75
2022/11/12 10:53:27;;;;;;;14.98;9.45;;;;;;;;;;5057375;28;20653;-75
2022/11/12 10:56:00;;;;;;;16.52;10.30;;;;;;;;;;5056963;28;20045;-76
2022/11/12 10:58:27;;;;;;;15.80;9.32;;;;;;;;;;5058452;28;20146;-76
2022/11/12 11:00:57;;;;;;;16.73;11.30;;;;;;;;;;5056836;28;20048;-76
2022/11/12 11:03:28;;;;;;;14.07;9.15;;;;;;;;;;5032578;28;20077;-76
2022/11/12 11:05:54;;;;;;;14.68;10.07;;;;;;;;;;5057101;28;20033;-75
2022/11/12 11:08:43;;;;;;;14.25;9.63;;;;;;;;;;5057248;28;20044;-76
2022/11/12 11:11:15;;;;;;;12.05;8.38;;;;;;;;;;5048601;28;20049;-76
2022/11/12 11:13:46;;;;;;;15.35;9.90;;;;;;;;;;5037935;28;20803;-76
2022/11/12 11:16:22;;;;;;;11.18;7.30;;;;;;;;;;5055905;28;20106;-76
2022/11/12 11:18:51;;;;;;;12.65;9.45;;;;;;;;;;5057180;28;20072;-77
2022/11/12 11:21:26;;;;;;;15.20;8.15;;;;;;;;;;5057920;28;20053;-76
2022/11/12 11:24:01;;;;;;;16.70;7.75;;;;;;;;;;5056224;28;20045;-76
2022/11/12 11:26:31;;;;;;;17.20;10.32;;;;;;;;;;5058525;28;20198;-77
2022/11/12 11:29:06;;;;;;;12.27;7.78;;;;;;;;;;5057701;28;20577;-77
2022/11/12 11:31:52;;;;;;;13.50;8.63;;;;;;;;;;5039343;28;20041;-77
2022/11/12 11:34:33;;;;;;;11.68;8.27;;;;;;;;;;5038731;28;20122;-77
2022/11/12 11:37:19;;;;;;;16.63;8.13;;;;;;;;;;5031614;28;20048;-76
2022/11/12 11:39:45;;;;;;;13.63;8.57;;;;;;;;;;5039346;28;20515;-76
2022/11/12 11:42:23;;;;;;;14.73;9.80;;;;;;;;;;5033129;28;20106;-75
2022/11/12 11:45:00;;;;;;;15.85;10.18;;;;;;;;;;5059171;28;20048;-77
2022/11/12 11:47:26;;;;;;;12.73;8.52;;;;;;;;;;5058959;28;20056;-76
2022/11/12 11:49:52;;;;;;;17.95;8.70;;;;;;;;;;5058774;28;20504;-76
2022/11/12 11:52:27;;;;;;;13.73;8.57;;;;;;;;;;5058355;28;20037;-76
2022/11/12 11:55:12;;;;;;;11.50;7.50;;;;;;;;;;5039069;28;20033;-76
2022/11/12 11:57:47;;;;;;;17.48;8.05;;;;;;;;;;5059279;28;20586;-76
2022/11/12 12:00:19;;;;;;;14.73;8.00;;;;;;;;;;5058653;28;20047;-76
2022/11/12 12:02:45;;;;;;;15.02;10.32;;;;;;;;;;5058334;28;20040;-76
2022/11/12 12:05:11;;;;;;;16.90;8.77;;;;;;;;;;5056610;28;20037;-76
2022/11/12 12:07:45;;;;;;;19.25;9.15;;;;;;;;;;5039020;28;20047;-76
2022/11/12 12:10:11;;;;;;;12.35;8.43;;;;;;;;;;5055730;28;20175;-76
2022/11/12 12:12:40;;;;;;;12.38;9.00;;;;;;;;;;5055536;28;20040;-76
2022/11/12 12:15:06;;;;;;;14.40;8.77;;;;;;;;;;5056904;28;20037;-76
2022/11/12 12:18:01;;;;;;;12.90;9.48;;;;;;;;;;5057579;28;20072;-76
2022/11/12 12:20:33;;;;;;;14.50;7.70;;;;;;;;;;5050207;28;20059;-76
2022/11/12 12:23:04;;;;;;;12.65;8.27;;;;;;;;;;5055012;28;20065;-76
2022/11/12 12:25:36;;;;;;;15.05;9.98;;;;;;;;;;5035261;28;20047;-76
2022/11/12 12:28:02;;;;;;;;;;;;;;;;;;5053612;28;20076;-76
2022/11/12 12:30:29;;;;;;;15.98;6.78;;;;;;;;;;5028058;28;20313;-76
2022/11/12 12:33:16;;;;;;;12.27;6.57;;;;;;;;;;5052420;28;20030;-75
2022/11/12 12:35:59;;;;;;;12.05;6.28;;;;;;;;;;5052582;28;20049;-77
2022/11/12 12:38:37;;;;;;;11.75;7.28;;;;;;;;;;5052407;28;20052;-77
2022/11/12 12:41:06;;;;;;;11.13;6.32;;;;;;;;;;5053788;28;20103;-77
2022/11/12 12:43:52;;;;;;;11.00;7.88;;;;;;;;;;5037873;28;20045;-76
2022/11/12 12:46:21;;;;;;;10.27;7.00;;;;;;;;;;5037050;28;20080;-76
2022/11/12 12:48:49;;;;;;;10.77;6.90;;;;;;;;;;5055606;28;20565;-76
2022/11/12 12:51:16;;;;;;;10.05;6.55;;;;;;;;;;5057828;28;20064;-76
2022/11/12 12:53:42;;;;;;;9.73;6.95;;;;;;;;;;5058733;28;20037;-77
2022/11/12 12:56:14;;;;;;;10.57;6.10;;;;;;;;;;5033360;28;20072;-77
2022/11/12 12:58:40;;;;;;;;;;;;;;;;;;5053759;28;20088;-75
2022/11/12 13:01:22;;;;;;;11.68;6.45;;;;;;;;;;5039595;28;20538;-76
2022/11/12 13:03:51;;;;;;;11.25;6.97;;;;;;;;;;5039977;28;20045;-76
2022/11/12 13:06:23;;;;;;;11.20;6.70;;;;;;;;;;5058189;28;20041;-77
2022/11/12 13:08:49;;;;;;;10.05;5.78;;;;;;;;;;5058729;28;20048;-76
2022/11/12 13:12:20;;;;;;;8.05;6.22;;;;;;;;;;5031555;28;20100;-76
2022/11/12 13:14:36;;;;;;;10.57;6.53;;;;;;;;;;5056489;28;20084;-77
2022/11/12 13:17:02;;;;;;;;;;;;;;;;;;5051374;28;20045;-77
2022/11/12 13:19:29;;;;;;;8.60;5.65;;;;;;;;;;5052241;28;20410;-76
2022/11/12 13:22:16;;;;;;;11.75;6.15;;;;;;;;;;5029809;28;20049;-77
2022/11/12 13:25:00;;;;;;;9.77;6.47;;;;;;;;;;5004745;28;20056;-77
2022/11/12 13:27:39;;;;;;;9.52;6.85;;;;;;;;;;5033031;28;20045;-76
2022/11/12 13:30:09;;;;;;;9.23;6.70;;;;;;;;;;5030447;28;20478;-76
2022/11/12 13:32:35;;;;;;;10.57;6.72;;;;;;;;;;5034836;28;20124;-77
2022/11/12 13:35:16;;;;;;;15.30;7.78;;;;;;;;;;5049973;28;20049;-77
2022/11/12 13:37:49;;;;;;;9.57;6.93;;;;;;;;;;5033769;28;20136;-76
2022/11/12 13:40:24;;;;;;;11.07;6.38;;;;;;;;;;5050301;28;20053;-77
2022/11/12 13:42:51;;;;;;;12.52;6.25;;;;;;;;;;5055584;28;20049;-77
2022/11/12 13:45:22;;;;;;;9.00;6.70;;;;;;;;;;5033275;28;20337;-78
2022/11/12 13:47:48;;;;;;;14.73;8.48;;;;;;;;;;5035141;28;20051;-76
2022/11/12 13:50:17;;;;;;;10.48;6.35;;;;;;;;;;5037618;28;20088;-78
2022/11/12 13:52:43;;;;;;;11.38;6.72;;;;;;;;;;5028839;28;20360;-78
2022/11/12 13:55:13;;;;;;;11.52;6.63;;;;;;;;;;5031695;28;20061;-77
2022/11/12 13:57:39;;;;;;;15.23;7.85;;;;;;;;;;5053300;28;20103;-77
2022/11/12 14:00:20;;;;;;;11.80;7.20;;;;;;;;;;5053234;28;20107;-78
2022/11/12 14:02:55;;;;;;;12.23;7.97;;;;;;;;;;5028576;28;20137;-77
2022/11/12 14:05:23;;;;;;;14.10;7.25;;;;;;;;;;5054398;28;20521;-76
2022/11/12 14:07:53;;;;;;;11.40;5.88;;;;;;;;;;5038397;28;20456;-77
2022/11/12 14:10:35;;;;;;;9.85;6.53;;;;;;;;;;5030924;28;20052;-77
2022/11/12 14:13:10;;;;;;;7.68;5.53;;;;;;;;;;5053793;28;20156;-77
2022/11/12 14:15:36;;;;;;;9.40;5.88;;;;;;;;;;5053517;28;20065;-77
2022/11/12 14:18:05;;;;;;;10.48;6.22;;;;;;;;;;5055215;28;20041;-78
2022/11/12 14:20:35;;;;;;;13.48;6.68;;;;;;;;;;5051167;28;20049;-78
2022/11/12 14:23:12;;;;;;;9.63;5.60;;;;;;;;;;5034671;28;20064;-77
2022/11/12 14:25:49;;;;;;;7.55;5.22;;;;;;;;;;5034841;28;20673;-77
2022/11/12 14:28:24;;;;;;;11.95;6.45;;;;;;;;;;5029144;28;20092;-76
2022/11/12 14:30:50;;;;;;;10.13;5.75;;;;;;;;;;5029944;28;20048;-76
2022/11/12 14:33:25;;;;;;;7.82;5.03;;;;;;;;;;5050976;28;20037;-76
2022/11/12 14:35:52;;;;;;;8.23;5.80;;;;;;;;;;5052154;28;20157;-76
2022/11/12 14:38:20;;;;;;;11.20;6.45;;;;;;;;;;5035893;28;20041;-76
2022/11/12 14:40:48;;;;;;;7.78;5.15;;;;;;;;;;5028201;28;20435;-76
2022/11/12 14:43:22;;;;;;;9.57;5.80;;;;;;;;;;5055426;28;20143;-76
2022/11/12 14:45:48;;;;;;;8.38;5.82;;;;;;;;;;5051795;28;20041;-76
2022/11/12 14:48:15;;;;;;;9.80;5.88;;;;;;;;;;5052109;28;20100;-76
2022/11/12 14:50:42;;;;;;;10.68;5.97;;;;;;;;;;5051149;28;20052;-76
2022/11/12 14:53:13;;;;;;;13.35;6.85;;;;;;;;;;5056065;28;20041;-75
2022/11/12 14:55:47;;;;;;;10.80;6.65;;;;;;;;;;5057811;28;20044;-77
2022/11/12 14:58:14;;;;;;;8.82;5.30;;;;;;;;;;5059702;28;20051;-76
2022/11/12 15:00:45;;;;;;;11.23;6.63;;;;;;;;;;5033759;28;20045;-76
2022/11/12 15:03:13;;;;;;;10.65;6.32;;;;;;;;;;5038285;28;20097;-77
2022/11/12 15:05:58;;;;;;;9.13;5.65;;;;;;;;;;5055660;28;20045;-77
2022/11/12 15:08:28;;;;;;;10.07;5.95;;;;;;;;;;5032018;28;20983;-77
2022/11/12 15:10:54;;;;;;;8.82;6.75;;;;;;;;;;5051286;28;20045;-78
2022/11/12 15:13:22;;;;;;;10.75;7.30;;;;;;;;;;5058142;28;20048;-78